sensor_id;sensor_type;location;lat;lon;timestamp;temperature;humidity
18141;DHT22;9196;49.194;12.526;2023-06-22T00:02:02;18.80;99.90
18141;DHT22;9196;49.194;12.526;2023-06-22T00:04:29;18.80;99.90
18141;DHT22;9196;49.194;12.526;2023-06-22T00:06:55;18.90;99.90
18141;DHT22;9196;49.194;12.526;2023-06-22T00:09:22;19.00;99.90
18141;DHT22;9196;49.194;12.526;2023-06-22T00:11:49;19.20;99.90
18141;DHT22;9196;49.194;12.526;2023-06-22T00:14:15;19.10;99.90
18141;DHT22;9196;49.194;12.526;2023-06-22T00:16:42;19.10;99.90
18141;DHT22;9196;49.194;12.526;2023-06-22T00:19:10;19.10;99.90
18141;DHT22;9196;49.194;12.526;2023-06-22T00:21:38;19.20;99.90
18141;DHT22;9196;49.194;12.526;2023-06-22T00:24:05;19.20;99.90
18141;DHT22;9196;49.194;12.526;2023-06-22T00:26:32;19.30;99.90
18141;DHT22;9196;49.194;12.526;2023-06-22T00:28:59;19.30;99.90
18141;DHT22;9196;49.194;12.526;2023-06-22T00:31:26;19.30;99.90
18141;DHT22;9196;49.194;12.526;2023-06-22T00:33:52;19.30;99.90
18141;DHT22;9196;49.194;12.526;2023-06-22T00:36:20;19.30;99.90
18141;DHT22;9196;49.194;12.526;2023-06-22T00:38:50;19.30;99.90
18141;DHT22;9196;49.194;12.526;2023-06-22T00:41:17;19.20;99.90
18141;DHT22;9196;49.194;12.526;2023-06-22T00:43:45;19.20;99.90
18141;DHT22;9196;49.194;12.526;2023-06-22T00:46:12;19.00;99.90
18141;DHT22;9196;49.194;12.526;2023-06-22T00:48:39;18.80;99.90
18141;DHT22;9196;49.194;12.526;2023-06-22T00:51:07;18.80;99.90
18141;DHT22;9196;49.194;12.526;2023-06-22T00:53:35;18.80;99.90
18141;DHT22;9196;49.194;12.526;2023-06-22T00:56:04;18.70;99.90
18141;DHT22;9196;49.194;12.526;2023-06-22T00:58:32;18.70;99.90
18141;DHT22;9196;49.194;12.526;2023-06-22T01:00:58;18.70;99.90
18141;DHT22;9196;49.194;12.526;2023-06-22T01:03:25;18.80;99.90
18141;DHT22;9196;49.194;12.526;2023-06-22T01:05:54;18.80;99.90
18141;DHT22;9196;49.194;12.526;2023-06-22T01:08:31;18.90;99.90
18141;DHT22;9196;49.194;12.526;2023-06-22T01:13:47;18.90;99.90
18141;DHT22;9196;49.194;12.526;2023-06-22T01:16:19;19.00;99.90
18141;DHT22;9196;49.194;12.526;2023-06-22T01:18:50;19.00;99.90
18141;DHT22;9196;49.194;12.526;2023-06-22T01:21:20;19.00;99.90
18141;DHT22;9196;49.194;12.526;2023-06-22T01:23:56;18.70;99.90
18141;DHT22;9196;49.194;12.526;2023-06-22T01:26:36;18.50;99.90
18141;DHT22;9196;49.194;12.526;2023-06-22T01:29:06;18.50;99.90
18141;DHT22;9196;49.194;12.526;2023-06-22T01:31:35;18.50;99.90
18141;DHT22;9196;49.194;12.526;2023-06-22T01:34:04;18.50;99.90
18141;DHT22;9196;49.194;12.526;2023-06-22T01:36:32;18.50;99.90
18141;DHT22;9196;49.194;12.526;2023-06-22T01:39:00;18.50;99.90
18141;DHT22;9196;49.194;12.526;2023-06-22T01:41:28;18.70;99.90
18141;DHT22;9196;49.194;12.526;2023-06-22T01:43:56;18.80;99.90
18141;DHT22;9196;49.194;12.526;2023-06-22T01:46:25;18.80;99.90
18141;DHT22;9196;49.194;12.526;2023-06-22T01:48:52;18.70;99.90
18141;DHT22;9196;49.194;12.526;2023-06-22T01:51:19;18.80;99.90
18141;DHT22;9196;49.194;12.526;2023-06-22T01:53:46;18.80;99.90
18141;DHT22;9196;49.194;12.526;2023-06-22T01:56:15;18.90;99.90
18141;DHT22;9196;49.194;12.526;2023-06-22T01:58:48;18.90;99.90
18141;DHT22;9196;49.194;12.526;2023-06-22T02:01:19;19.00;99.90
18141;DHT22;9196;49.194;12.526;2023-06-22T02:03:52;19.00;99.90
18141;DHT22;9196;49.194;12.526;2023-06-22T02:06:23;19.00;99.90
18141;DHT22;9196;49.194;12.526;2023-06-22T02:08:55;18.90;99.90
18141;DHT22;9196;49.194;12.526;2023-06-22T02:11:24;19.00;99.90
18141;DHT22;9196;49.194;12.526;2023-06-22T02:13:53;19.00;99.90
18141;DHT22;9196;49.194;12.526;2023-06-22T02:16:20;19.00;99.90
18141;DHT22;9196;49.194;12.526;2023-06-22T02:18:49;19.00;99.90
18141;DHT22;9196;49.194;12.526;2023-06-22T02:21:17;19.00;99.90
18141;DHT22;9196;49.194;12.526;2023-06-22T02:23:44;19.00;99.90
18141;DHT22;9196;49.194;12.526;2023-06-22T02:26:11;18.90;99.90
18141;DHT22;9196;49.194;12.526;2023-06-22T02:28:38;18.90;99.90
18141;DHT22;9196;49.194;12.526;2023-06-22T02:31:05;18.90;99.90
18141;DHT22;9196;49.194;12.526;2023-06-22T02:33:31;18.90;99.90
18141;DHT22;9196;49.194;12.526;2023-06-22T02:36:00;18.80;99.90
18141;DHT22;9196;49.194;12.526;2023-06-22T02:38:30;18.80;99.90
18141;DHT22;9196;49.194;12.526;2023-06-22T02:41:00;18.60;99.90
18141;DHT22;9196;49.194;12.526;2023-06-22T02:43:26;18.40;99.90
18141;DHT22;9196;49.194;12.526;2023-06-22T02:45:53;18.40;99.90
18141;DHT22;9196;49.194;12.526;2023-06-22T02:48:20;18.30;99.90
18141;DHT22;9196;49.194;12.526;2023-06-22T02:50:47;18.30;99.90
18141;DHT22;9196;49.194;12.526;2023-06-22T02:53:15;18.40;99.90
18141;DHT22;9196;49.194;12.526;2023-06-22T02:55:42;18.40;99.90
18141;DHT22;9196;49.194;12.526;2023-06-22T02:58:08;18.50;99.90
18141;DHT22;9196;49.194;12.526;2023-06-22T03:00:35;18.40;99.90
18141;DHT22;9196;49.194;12.526;2023-06-22T03:03:02;18.40;99.90
18141;DHT22;9196;49.194;12.526;2023-06-22T03:05:29;18.50;99.90
18141;DHT22;9196;49.194;12.526;2023-06-22T03:07:55;18.50;99.90
18141;DHT22;9196;49.194;12.526;2023-06-22T03:10:24;18.60;99.90
18141;DHT22;9196;49.194;12.526;2023-06-22T03:12:51;18.70;99.90
18141;DHT22;9196;49.194;12.526;2023-06-22T03:15:18;18.70;99.90
18141;DHT22;9196;49.194;12.526;2023-06-22T03:17:44;18.70;99.90
18141;DHT22;9196;49.194;12.526;2023-06-22T03:20:12;18.80;99.90
18141;DHT22;9196;49.194;12.526;2023-06-22T03:22:40;18.80;99.90
18141;DHT22;9196;49.194;12.526;2023-06-22T03:25:08;18.80;99.90
18141;DHT22;9196;49.194;12.526;2023-06-22T03:27:40;18.90;99.90
18141;DHT22;9196;49.194;12.526;2023-06-22T03:30:08;18.90;99.90
18141;DHT22;9196;49.194;12.526;2023-06-22T03:32:35;18.80;99.90
18141;DHT22;9196;49.194;12.526;2023-06-22T03:35:02;18.70;99.90
18141;DHT22;9196;49.194;12.526;2023-06-22T03:37:29;18.70;99.90
18141;DHT22;9196;49.194;12.526;2023-06-22T03:39:56;18.90;99.90
18141;DHT22;9196;49.194;12.526;2023-06-22T03:42:23;18.90;99.90
18141;DHT22;9196;49.194;12.526;2023-06-22T03:44:51;19.00;99.90
18141;DHT22;9196;49.194;12.526;2023-06-22T03:47:18;19.00;99.90
18141;DHT22;9196;49.194;12.526;2023-06-22T03:49:45;19.00;99.90
18141;DHT22;9196;49.194;12.526;2023-06-22T03:52:11;19.10;99.90
18141;DHT22;9196;49.194;12.526;2023-06-22T03:54:38;19.20;99.90
18141;DHT22;9196;49.194;12.526;2023-06-22T03:57:05;19.30;99.90
18141;DHT22;9196;49.194;12.526;2023-06-22T03:59:32;19.30;99.90
18141;DHT22;9196;49.194;12.526;2023-06-22T04:02:00;19.30;99.90
18141;DHT22;9196;49.194;12.526;2023-06-22T04:04:27;19.30;99.90
18141;DHT22;9196;49.194;12.526;2023-06-22T04:06:54;19.40;99.90
18141;DHT22;9196;49.194;12.526;2023-06-22T04:09:21;19.40;99.90
18141;DHT22;9196;49.194;12.526;2023-06-22T04:11:48;19.40;99.90
18141;DHT22;9196;49.194;12.526;2023-06-22T04:14:15;19.50;99.90
18141;DHT22;9196;49.194;12.526;2023-06-22T04:16:41;19.50;99.90
18141;DHT22;9196;49.194;12.526;2023-06-22T04:19:09;19.50;99.90
18141;DHT22;9196;49.194;12.526;2023-06-22T04:21:41;19.50;99.90
18141;DHT22;9196;49.194;12.526;2023-06-22T04:24:08;19.40;99.90
18141;DHT22;9196;49.194;12.526;2023-06-22T04:26:35;19.40;99.90
18141;DHT22;9196;49.194;12.526;2023-06-22T04:29:03;19.50;99.90
18141;DHT22;9196;49.194;12.526;2023-06-22T04:31:31;19.40;99.90
18141;DHT22;9196;49.194;12.526;2023-06-22T04:34:02;19.50;99.90
18141;DHT22;9196;49.194;12.526;2023-06-22T04:36:34;19.60;99.90
18141;DHT22;9196;49.194;12.526;2023-06-22T04:39:04;19.50;99.90
18141;DHT22;9196;49.194;12.526;2023-06-22T04:41:31;19.50;99.90
18141;DHT22;9196;49.194;12.526;2023-06-22T04:44:08;19.50;99.90
18141;DHT22;9196;49.194;12.526;2023-06-22T04:46:34;19.40;99.90
18141;DHT22;9196;49.194;12.526;2023-06-22T04:49:04;19.30;99.90
18141;DHT22;9196;49.194;12.526;2023-06-22T04:51:31;19.30;99.90
18141;DHT22;9196;49.194;12.526;2023-06-22T04:53:59;19.30;99.90
18141;DHT22;9196;49.194;12.526;2023-06-22T04:56:27;19.10;99.90
18141;DHT22;9196;49.194;12.526;2023-06-22T04:58:54;19.10;99.90
18141;DHT22;9196;49.194;12.526;2023-06-22T05:01:22;19.10;99.90
18141;DHT22;9196;49.194;12.526;2023-06-22T05:03:49;19.00;99.90
18141;DHT22;9196;49.194;12.526;2023-06-22T05:06:16;19.00;99.90
18141;DHT22;9196;49.194;12.526;2023-06-22T05:08:43;19.00;99.90
18141;DHT22;9196;49.194;12.526;2023-06-22T05:11:11;19.00;99.90
18141;DHT22;9196;49.194;12.526;2023-06-22T05:13:38;19.10;99.90
18141;DHT22;9196;49.194;12.526;2023-06-22T05:16:04;19.10;99.90
18141;DHT22;9196;49.194;12.526;2023-06-22T05:18:31;19.00;99.90
18141;DHT22;9196;49.194;12.526;2023-06-22T05:20:58;18.90;99.90
18141;DHT22;9196;49.194;12.526;2023-06-22T05:23:25;18.90;99.90
18141;DHT22;9196;49.194;12.526;2023-06-22T05:25:52;18.90;99.90
18141;DHT22;9196;49.194;12.526;2023-06-22T05:28:21;18.80;99.90
18141;DHT22;9196;49.194;12.526;2023-06-22T05:30:48;18.90;99.90
18141;DHT22;9196;49.194;12.526;2023-06-22T05:33:15;19.10;99.90
18141;DHT22;9196;49.194;12.526;2023-06-22T05:35:42;19.20;99.90
18141;DHT22;9196;49.194;12.526;2023-06-22T05:38:09;19.20;99.90
18141;DHT22;9196;49.194;12.526;2023-06-22T05:40:35;19.10;99.90
18141;DHT22;9196;49.194;12.526;2023-06-22T05:43:02;19.30;99.90
18141;DHT22;9196;49.194;12.526;2023-06-22T05:45:30;19.30;99.90
18141;DHT22;9196;49.194;12.526;2023-06-22T05:47:57;19.30;99.90
18141;DHT22;9196;49.194;12.526;2023-06-22T05:50:24;19.40;99.90
18141;DHT22;9196;49.194;12.526;2023-06-22T05:52:51;19.60;99.90
18141;DHT22;9196;49.194;12.526;2023-06-22T05:55:17;19.50;99.90
18141;DHT22;9196;49.194;12.526;2023-06-22T05:57:45;19.50;99.90
18141;DHT22;9196;49.194;12.526;2023-06-22T06:00:12;19.60;99.90
18141;DHT22;9196;49.194;12.526;2023-06-22T06:02:41;19.70;99.90
18141;DHT22;9196;49.194;12.526;2023-06-22T06:05:10;19.90;99.90
18141;DHT22;9196;49.194;12.526;2023-06-22T06:07:36;20.10;99.90
18141;DHT22;9196;49.194;12.526;2023-06-22T06:10:04;20.40;99.90
18141;DHT22;9196;49.194;12.526;2023-06-22T06:12:31;20.50;99.90
18141;DHT22;9196;49.194;12.526;2023-06-22T06:14:58;20.60;99.90
18141;DHT22;9196;49.194;12.526;2023-06-22T06:17:25;20.70;99.90
18141;DHT22;9196;49.194;12.526;2023-06-22T06:19:53;20.90;99.90
18141;DHT22;9196;49.194;12.526;2023-06-22T06:22:20;21.10;99.90
18141;DHT22;9196;49.194;12.526;2023-06-22T06:24:49;21.20;99.90
18141;DHT22;9196;49.194;12.526;2023-06-22T06:27:16;21.20;99.90
18141;DHT22;9196;49.194;12.526;2023-06-22T06:29:44;21.30;99.90
18141;DHT22;9196;49.194;12.526;2023-06-22T06:32:13;21.40;99.90
18141;DHT22;9196;49.194;12.526;2023-06-22T06:34:40;21.60;99.90
18141;DHT22;9196;49.194;12.526;2023-06-22T06:37:09;21.70;99.90
18141;DHT22;9196;49.194;12.526;2023-06-22T06:39:36;21.80;99.90
18141;DHT22;9196;49.194;12.526;2023-06-22T06:42:04;21.90;99.90
18141;DHT22;9196;49.194;12.526;2023-06-22T06:44:31;22.00;99.90
18141;DHT22;9196;49.194;12.526;2023-06-22T06:46:58;22.20;99.90
18141;DHT22;9196;49.194;12.526;2023-06-22T06:49:25;22.40;99.90
18141;DHT22;9196;49.194;12.526;2023-06-22T06:51:51;22.50;99.90
18141;DHT22;9196;49.194;12.526;2023-06-22T06:54:20;22.60;99.90
18141;DHT22;9196;49.194;12.526;2023-06-22T06:56:46;22.70;99.90
18141;DHT22;9196;49.194;12.526;2023-06-22T06:59:13;22.80;99.90
18141;DHT22;9196;49.194;12.526;2023-06-22T07:01:40;22.90;99.90
18141;DHT22;9196;49.194;12.526;2023-06-22T07:04:07;22.90;99.90
18141;DHT22;9196;49.194;12.526;2023-06-22T07:06:34;23.10;99.90
18141;DHT22;9196;49.194;12.526;2023-06-22T07:09:01;23.20;99.90
18141;DHT22;9196;49.194;12.526;2023-06-22T07:11:30;23.20;99.90
18141;DHT22;9196;49.194;12.526;2023-06-22T07:13:57;23.20;99.90
18141;DHT22;9196;49.194;12.526;2023-06-22T07:16:24;23.30;99.90
18141;DHT22;9196;49.194;12.526;2023-06-22T07:18:53;23.40;99.90
18141;DHT22;9196;49.194;12.526;2023-06-22T07:21:20;23.40;99.90
18141;DHT22;9196;49.194;12.526;2023-06-22T07:23:46;23.50;99.90
18141;DHT22;9196;49.194;12.526;2023-06-22T07:26:13;23.60;99.90
18141;DHT22;9196;49.194;12.526;2023-06-22T07:28:42;23.70;99.90
18141;DHT22;9196;49.194;12.526;2023-06-22T07:31:09;23.80;99.90
18141;DHT22;9196;49.194;12.526;2023-06-22T07:33:36;23.80;99.90
18141;DHT22;9196;49.194;12.526;2023-06-22T07:36:03;23.80;99.90
18141;DHT22;9196;49.194;12.526;2023-06-22T07:38:33;23.90;99.90
18141;DHT22;9196;49.194;12.526;2023-06-22T07:41:00;23.90;99.90
18141;DHT22;9196;49.194;12.526;2023-06-22T07:43:28;24.10;99.90
18141;DHT22;9196;49.194;12.526;2023-06-22T07:45:56;24.10;99.90
18141;DHT22;9196;49.194;12.526;2023-06-22T07:48:23;24.10;99.90
18141;DHT22;9196;49.194;12.526;2023-06-22T07:50:50;24.10;99.90
18141;DHT22;9196;49.194;12.526;2023-06-22T07:53:20;24.10;99.90
18141;DHT22;9196;49.194;12.526;2023-06-22T07:55:47;24.20;99.90
18141;DHT22;9196;49.194;12.526;2023-06-22T07:58:13;24.20;99.90
18141;DHT22;9196;49.194;12.526;2023-06-22T08:00:41;24.30;99.90
18141;DHT22;9196;49.194;12.526;2023-06-22T08:03:09;24.40;99.90
18141;DHT22;9196;49.194;12.526;2023-06-22T08:05:36;24.50;99.90
18141;DHT22;9196;49.194;12.526;2023-06-22T08:08:03;24.60;99.90
18141;DHT22;9196;49.194;12.526;2023-06-22T08:10:30;24.80;99.90
18141;DHT22;9196;49.194;12.526;2023-06-22T08:12:56;24.80;99.90
18141;DHT22;9196;49.194;12.526;2023-06-22T08:15:25;24.90;99.90
18141;DHT22;9196;49.194;12.526;2023-06-22T08:17:52;25.00;99.90
18141;DHT22;9196;49.194;12.526;2023-06-22T08:20:20;25.10;99.90
18141;DHT22;9196;49.194;12.526;2023-06-22T08:22:47;25.20;99.90
18141;DHT22;9196;49.194;12.526;2023-06-22T08:25:14;25.30;99.90
18141;DHT22;9196;49.194;12.526;2023-06-22T08:27:44;25.50;99.90
18141;DHT22;9196;49.194;12.526;2023-06-22T08:30:11;25.50;99.90
18141;DHT22;9196;49.194;12.526;2023-06-22T08:32:38;25.70;99.90
18141;DHT22;9196;49.194;12.526;2023-06-22T08:35:06;25.70;99.90
18141;DHT22;9196;49.194;12.526;2023-06-22T08:37:36;25.90;99.90
18141;DHT22;9196;49.194;12.526;2023-06-22T08:40:06;26.00;99.90
18141;DHT22;9196;49.194;12.526;2023-06-22T08:42:34;26.10;99.90
18141;DHT22;9196;49.194;12.526;2023-06-22T08:45:01;26.20;99.90
18141;DHT22;9196;49.194;12.526;2023-06-22T08:47:28;26.30;99.90
18141;DHT22;9196;49.194;12.526;2023-06-22T08:49:55;26.50;99.90
18141;DHT22;9196;49.194;12.526;2023-06-22T08:52:23;26.50;99.90
18141;DHT22;9196;49.194;12.526;2023-06-22T08:54:51;26.60;99.90
18141;DHT22;9196;49.194;12.526;2023-06-22T08:57:18;26.80;99.90
18141;DHT22;9196;49.194;12.526;2023-06-22T08:59:45;26.90;99.90
18141;DHT22;9196;49.194;12.526;2023-06-22T09:02:12;26.90;99.90
18141;DHT22;9196;49.194;12.526;2023-06-22T09:04:39;27.00;99.90
18141;DHT22;9196;49.194;12.526;2023-06-22T09:07:06;27.00;99.90
18141;DHT22;9196;49.194;12.526;2023-06-22T09:09:33;27.10;99.90
18141;DHT22;9196;49.194;12.526;2023-06-22T09:12:01;27.20;99.90
18141;DHT22;9196;49.194;12.526;2023-06-22T09:14:28;27.40;99.90
18141;DHT22;9196;49.194;12.526;2023-06-22T09:16:55;27.50;99.90
18141;DHT22;9196;49.194;12.526;2023-06-22T09:19:22;27.40;99.90
18141;DHT22;9196;49.194;12.526;2023-06-22T09:21:49;27.50;99.90
18141;DHT22;9196;49.194;12.526;2023-06-22T09:24:16;27.60;99.90
18141;DHT22;9196;49.194;12.526;2023-06-22T09:26:43;27.70;99.90
18141;DHT22;9196;49.194;12.526;2023-06-22T09:29:11;27.80;99.90
18141;DHT22;9196;49.194;12.526;2023-06-22T09:31:38;27.90;99.90
18141;DHT22;9196;49.194;12.526;2023-06-22T09:34:05;28.00;99.90
18141;DHT22;9196;49.194;12.526;2023-06-22T09:36:32;28.10;99.90
18141;DHT22;9196;49.194;12.526;2023-06-22T09:38:58;28.30;99.90
18141;DHT22;9196;49.194;12.526;2023-06-22T09:41:31;28.40;99.90
18141;DHT22;9196;49.194;12.526;2023-06-22T09:43:58;28.40;99.90
18141;DHT22;9196;49.194;12.526;2023-06-22T09:46:26;28.50;99.90
18141;DHT22;9196;49.194;12.526;2023-06-22T09:48:53;28.50;99.90
18141;DHT22;9196;49.194;12.526;2023-06-22T09:51:20;28.40;99.90
18141;DHT22;9196;49.194;12.526;2023-06-22T09:53:49;28.50;99.90
18141;DHT22;9196;49.194;12.526;2023-06-22T09:56:15;28.50;99.90
18141;DHT22;9196;49.194;12.526;2023-06-22T09:58:43;28.60;99.90
18141;DHT22;9196;49.194;12.526;2023-06-22T10:01:10;28.70;99.90
18141;DHT22;9196;49.194;12.526;2023-06-22T10:03:38;28.80;99.90
18141;DHT22;9196;49.194;12.526;2023-06-22T10:06:05;28.90;99.90
18141;DHT22;9196;49.194;12.526;2023-06-22T10:08:31;29.00;99.90
18141;DHT22;9196;49.194;12.526;2023-06-22T10:10:58;29.10;99.90
18141;DHT22;9196;49.194;12.526;2023-06-22T10:13:25;29.20;99.90
18141;DHT22;9196;49.194;12.526;2023-06-22T10:15:52;29.30;99.90
18141;DHT22;9196;49.194;12.526;2023-06-22T10:18:19;29.40;99.90
18141;DHT22;9196;49.194;12.526;2023-06-22T10:20:50;29.50;99.90
18141;DHT22;9196;49.194;12.526;2023-06-22T10:23:17;29.60;98.10
18141;DHT22;9196;49.194;12.526;2023-06-22T10:25:44;29.70;98.40
18141;DHT22;9196;49.194;12.526;2023-06-22T10:28:11;29.80;98.20
18141;DHT22;9196;49.194;12.526;2023-06-22T10:30:38;30.00;98.10
18141;DHT22;9196;49.194;12.526;2023-06-22T10:33:06;29.90;97.60
18141;DHT22;9196;49.194;12.526;2023-06-22T10:35:33;30.10;97.60
18141;DHT22;9196;49.194;12.526;2023-06-22T10:38:01;30.20;97.50
18141;DHT22;9196;49.194;12.526;2023-06-22T10:40:28;30.30;96.00
18141;DHT22;9196;49.194;12.526;2023-06-22T10:42:55;30.30;94.60
18141;DHT22;9196;49.194;12.526;2023-06-22T10:45:22;30.20;97.80
18141;DHT22;9196;49.194;12.526;2023-06-22T10:47:48;30.30;99.00
18141;DHT22;9196;49.194;12.526;2023-06-22T10:50:15;30.30;97.70
18141;DHT22;9196;49.194;12.526;2023-06-22T10:52:42;30.40;97.00
18141;DHT22;9196;49.194;12.526;2023-06-22T10:55:10;30.50;96.90
18141;DHT22;9196;49.194;12.526;2023-06-22T10:57:37;30.60;95.30
18141;DHT22;9196;49.194;12.526;2023-06-22T11:00:08;30.50;96.40
18141;DHT22;9196;49.194;12.526;2023-06-22T11:02:36;30.70;95.30
18141;DHT22;9196;49.194;12.526;2023-06-22T11:05:03;30.70;96.10
18141;DHT22;9196;49.194;12.526;2023-06-22T11:07:30;30.70;96.40
18141;DHT22;9196;49.194;12.526;2023-06-22T11:09:58;30.70;96.70
18141;DHT22;9196;49.194;12.526;2023-06-22T11:12:26;30.80;95.70
18141;DHT22;9196;49.194;12.526;2023-06-22T11:14:53;30.90;95.40
18141;DHT22;9196;49.194;12.526;2023-06-22T11:17:22;31.00;95.00
18141;DHT22;9196;49.194;12.526;2023-06-22T11:19:49;31.10;95.20
18141;DHT22;9196;49.194;12.526;2023-06-22T11:22:16;31.00;94.80
18141;DHT22;9196;49.194;12.526;2023-06-22T11:24:42;30.90;95.00
18141;DHT22;9196;49.194;12.526;2023-06-22T11:27:09;31.10;94.70
18141;DHT22;9196;49.194;12.526;2023-06-22T11:29:37;31.10;94.50
18141;DHT22;9196;49.194;12.526;2023-06-22T11:32:06;31.20;94.50
18141;DHT22;9196;49.194;12.526;2023-06-22T11:34:33;31.20;94.80
18141;DHT22;9196;49.194;12.526;2023-06-22T11:37:00;31.30;95.00
18141;DHT22;9196;49.194;12.526;2023-06-22T11:39:27;31.50;94.40
18141;DHT22;9196;49.194;12.526;2023-06-22T11:41:53;31.50;94.80
18141;DHT22;9196;49.194;12.526;2023-06-22T11:44:20;31.60;94.60
18141;DHT22;9196;49.194;12.526;2023-06-22T11:46:48;31.70;94.00
18141;DHT22;9196;49.194;12.526;2023-06-22T11:49:15;31.90;94.10
18141;DHT22;9196;49.194;12.526;2023-06-22T11:51:42;32.00;93.50
18141;DHT22;9196;49.194;12.526;2023-06-22T11:54:09;32.00;94.40
18141;DHT22;9196;49.194;12.526;2023-06-22T11:56:35;32.00;94.00
18141;DHT22;9196;49.194;12.526;2023-06-22T11:59:02;32.00;93.50
18141;DHT22;9196;49.194;12.526;2023-06-22T12:01:29;32.00;94.60
18141;DHT22;9196;49.194;12.526;2023-06-22T12:03:59;32.10;94.00
18141;DHT22;9196;49.194;12.526;2023-06-22T12:06:26;32.10;93.70
18141;DHT22;9196;49.194;12.526;2023-06-22T12:08:53;32.10;93.90
18141;DHT22;9196;49.194;12.526;2023-06-22T12:11:20;32.10;93.40
18141;DHT22;9196;49.194;12.526;2023-06-22T12:13:47;32.00;93.90
18141;DHT22;9196;49.194;12.526;2023-06-22T12:16:13;32.00;93.70
18141;DHT22;9196;49.194;12.526;2023-06-22T12:18:40;32.00;93.80
18141;DHT22;9196;49.194;12.526;2023-06-22T12:21:08;32.10;94.20
18141;DHT22;9196;49.194;12.526;2023-06-22T12:23:35;32.30;93.60
18141;DHT22;9196;49.194;12.526;2023-06-22T12:26:01;32.30;94.60
18141;DHT22;9196;49.194;12.526;2023-06-22T12:28:28;32.40;94.00
18141;DHT22;9196;49.194;12.526;2023-06-22T12:30:55;32.30;94.40
18141;DHT22;9196;49.194;12.526;2023-06-22T12:33:22;32.40;94.40
18141;DHT22;9196;49.194;12.526;2023-06-22T12:35:48;32.60;93.90
18141;DHT22;9196;49.194;12.526;2023-06-22T12:38:17;32.80;93.50
18141;DHT22;9196;49.194;12.526;2023-06-22T12:40:43;33.00;92.70
18141;DHT22;9196;49.194;12.526;2023-06-22T12:43:12;33.10;91.90
18141;DHT22;9196;49.194;12.526;2023-06-22T12:45:39;33.10;92.60
18141;DHT22;9196;49.194;12.526;2023-06-22T12:48:06;33.10;92.70
18141;DHT22;9196;49.194;12.526;2023-06-22T12:50:33;33.00;92.70
18141;DHT22;9196;49.194;12.526;2023-06-22T12:53:00;33.10;92.40
18141;DHT22;9196;49.194;12.526;2023-06-22T12:55:31;33.20;91.00
18141;DHT22;9196;49.194;12.526;2023-06-22T12:57:57;33.20;92.00
18141;DHT22;9196;49.194;12.526;2023-06-22T13:00:24;33.40;91.50
18141;DHT22;9196;49.194;12.526;2023-06-22T13:02:51;33.50;91.70
18141;DHT22;9196;49.194;12.526;2023-06-22T13:05:18;33.60;91.60
18141;DHT22;9196;49.194;12.526;2023-06-22T13:07:45;33.60;90.60
18141;DHT22;9196;49.194;12.526;2023-06-22T13:10:12;33.80;90.30
18141;DHT22;9196;49.194;12.526;2023-06-22T13:12:40;33.90;91.70
18141;DHT22;9196;49.194;12.526;2023-06-22T13:15:07;34.00;91.20
18141;DHT22;9196;49.194;12.526;2023-06-22T13:17:34;34.00;90.70
18141;DHT22;9196;49.194;12.526;2023-06-22T13:20:01;34.10;90.70
18141;DHT22;9196;49.194;12.526;2023-06-22T13:22:30;34.10;88.70
18141;DHT22;9196;49.194;12.526;2023-06-22T13:24:58;34.20;89.90
18141;DHT22;9196;49.194;12.526;2023-06-22T13:27:25;34.30;88.40
18141;DHT22;9196;49.194;12.526;2023-06-22T13:29:53;34.20;88.90
18141;DHT22;9196;49.194;12.526;2023-06-22T13:32:20;34.20;89.60
18141;DHT22;9196;49.194;12.526;2023-06-22T13:34:47;34.20;90.00
18141;DHT22;9196;49.194;12.526;2023-06-22T13:37:14;34.30;88.90
18141;DHT22;9196;49.194;12.526;2023-06-22T13:39:41;34.40;89.30
18141;DHT22;9196;49.194;12.526;2023-06-22T13:42:08;34.30;90.00
18141;DHT22;9196;49.194;12.526;2023-06-22T13:44:35;34.40;89.00
18141;DHT22;9196;49.194;12.526;2023-06-22T13:47:03;34.50;88.70
18141;DHT22;9196;49.194;12.526;2023-06-22T13:49:31;34.70;88.10
18141;DHT22;9196;49.194;12.526;2023-06-22T13:51:57;34.70;86.00
18141;DHT22;9196;49.194;12.526;2023-06-22T13:54:24;34.70;87.60
18141;DHT22;9196;49.194;12.526;2023-06-22T13:56:51;34.80;86.10
18141;DHT22;9196;49.194;12.526;2023-06-22T13:59:18;34.80;85.70
18141;DHT22;9196;49.194;12.526;2023-06-22T14:01:46;34.80;85.40
18141;DHT22;9196;49.194;12.526;2023-06-22T14:04:14;34.60;85.20
18141;DHT22;9196;49.194;12.526;2023-06-22T14:06:41;34.30;86.30
18141;DHT22;9196;49.194;12.526;2023-06-22T14:09:08;34.30;87.50
18141;DHT22;9196;49.194;12.526;2023-06-22T14:11:35;34.50;86.80
18141;DHT22;9196;49.194;12.526;2023-06-22T14:14:01;34.50;88.30
18141;DHT22;9196;49.194;12.526;2023-06-22T14:16:28;34.50;87.50
18141;DHT22;9196;49.194;12.526;2023-06-22T14:18:55;34.70;87.90
18141;DHT22;9196;49.194;12.526;2023-06-22T14:21:23;34.90;87.20
18141;DHT22;9196;49.194;12.526;2023-06-22T14:23:50;35.10;84.40
18141;DHT22;9196;49.194;12.526;2023-06-22T14:26:17;35.10;84.60
18141;DHT22;9196;49.194;12.526;2023-06-22T14:28:45;35.10;84.50
18141;DHT22;9196;49.194;12.526;2023-06-22T14:31:15;35.20;84.70
18141;DHT22;9196;49.194;12.526;2023-06-22T14:33:47;35.10;83.10
18141;DHT22;9196;49.194;12.526;2023-06-22T14:36:14;35.10;83.70
18141;DHT22;9196;49.194;12.526;2023-06-22T14:38:43;35.30;83.40
18141;DHT22;9196;49.194;12.526;2023-06-22T14:41:09;35.40;82.40
18141;DHT22;9196;49.194;12.526;2023-06-22T14:43:36;35.40;83.00
18141;DHT22;9196;49.194;12.526;2023-06-22T14:46:03;35.20;81.80
18141;DHT22;9196;49.194;12.526;2023-06-22T14:48:30;35.10;82.70
18141;DHT22;9196;49.194;12.526;2023-06-22T14:50:57;35.00;82.50
18141;DHT22;9196;49.194;12.526;2023-06-22T14:53:25;34.70;82.20
18141;DHT22;9196;49.194;12.526;2023-06-22T14:55:54;34.40;83.80
18141;DHT22;9196;49.194;12.526;2023-06-22T14:58:21;34.20;83.90
18141;DHT22;9196;49.194;12.526;2023-06-22T15:00:48;34.00;85.60
18141;DHT22;9196;49.194;12.526;2023-06-22T15:03:15;33.80;85.60
18141;DHT22;9196;49.194;12.526;2023-06-22T15:05:47;33.70;85.60
18141;DHT22;9196;49.194;12.526;2023-06-22T15:08:13;33.50;86.90
18141;DHT22;9196;49.194;12.526;2023-06-22T15:10:40;33.40;86.80
18141;DHT22;9196;49.194;12.526;2023-06-22T15:13:08;33.40;87.10
18141;DHT22;9196;49.194;12.526;2023-06-22T15:15:35;33.40;87.10
18141;DHT22;9196;49.194;12.526;2023-06-22T15:18:02;33.50;89.10
18141;DHT22;9196;49.194;12.526;2023-06-22T15:20:29;33.70;89.10
18141;DHT22;9196;49.194;12.526;2023-06-22T15:22:56;33.90;87.20
18141;DHT22;9196;49.194;12.526;2023-06-22T15:25:23;34.10;86.40
18141;DHT22;9196;49.194;12.526;2023-06-22T15:27:50;34.20;86.60
18141;DHT22;9196;49.194;12.526;2023-06-22T15:30:20;34.30;86.90
18141;DHT22;9196;49.194;12.526;2023-06-22T15:32:47;34.50;85.60
18141;DHT22;9196;49.194;12.526;2023-06-22T15:35:14;34.60;84.30